sensor_id;sensor_type;location;lat;lon;timestamp;P1;durP1;ratioP1;P2;durP2;ratioP2
16304;SDS011;8261;47.678;-122.174;2023-04-30T00:01:42;5.37;;;1.67;;
16304;SDS011;8261;47.678;-122.174;2023-04-30T00:04:12;5.93;;;2.10;;
16304;SDS011;8261;47.678;-122.174;2023-04-30T00:06:44;5.77;;;1.67;;
16304;SDS011;8261;47.678;-122.174;2023-04-30T00:09:15;7.43;;;1.80;;
16304;SDS011;8261;47.678;-122.174;2023-04-30T00:11:47;3.70;;;1.50;;
16304;SDS011;8261;47.678;-122.174;2023-04-30T00:14:18;4.60;;;1.57;;
16304;SDS011;8261;47.678;-122.174;2023-04-30T00:16:50;6.07;;;1.70;;
16304;SDS011;8261;47.678;-122.174;2023-04-30T00:19:21;4.17;;;1.67;;
16304;SDS011;8261;47.678;-122.174;2023-04-30T00:21:53;3.90;;;1.47;;
16304;SDS011;8261;47.678;-122.174;2023-04-30T00:24:23;3.93;;;1.70;;
16304;SDS011;8261;47.678;-122.174;2023-04-30T00:26:55;4.77;;;1.87;;
16304;SDS011;8261;47.678;-122.174;2023-04-30T00:29:25;4.20;;;1.50;;
16304;SDS011;8261;47.678;-122.174;2023-04-30T00:31:59;3.50;;;1.60;;
16304;SDS011;8261;47.678;-122.174;2023-04-30T00:34:29;5.57;;;1.60;;
16304;SDS011;8261;47.678;-122.174;2023-04-30T00:37:01;4.00;;;1.73;;
16304;SDS011;8261;47.678;-122.174;2023-04-30T00:39:33;4.67;;;1.67;;
16304;SDS011;8261;47.678;-122.174;2023-04-30T00:42:04;4.70;;;1.60;;
16304;SDS011;8261;47.678;-122.174;2023-04-30T00:44:35;5.63;;;1.37;;
16304;SDS011;8261;47.678;-122.174;2023-04-30T00:47:07;4.80;;;1.53;;
16304;SDS011;8261;47.678;-122.174;2023-04-30T00:49:38;3.13;;;1.43;;
16304;SDS011;8261;47.678;-122.174;2023-04-30T00:52:10;4.37;;;1.60;;
16304;SDS011;8261;47.678;-122.174;2023-04-30T00:54:41;6.27;;;1.50;;
16304;SDS011;8261;47.678;-122.174;2023-04-30T00:57:13;3.00;;;1.37;;
16304;SDS011;8261;47.678;-122.174;2023-04-30T00:59:45;3.50;;;1.57;;
16304;SDS011;8261;47.678;-122.174;2023-04-30T01:02:19;4.47;;;1.60;;
16304;SDS011;8261;47.678;-122.174;2023-04-30T01:04:50;5.97;;;1.37;;
16304;SDS011;8261;47.678;-122.174;2023-04-30T01:07:22;4.93;;;1.57;;
16304;SDS011;8261;47.678;-122.174;2023-04-30T01:09:55;3.60;;;1.37;;
16304;SDS011;8261;47.678;-122.174;2023-04-30T01:12:28;4.17;;;1.80;;
16304;SDS011;8261;47.678;-122.174;2023-04-30T01:15:06;8.33;;;1.50;;
16304;SDS011;8261;47.678;-122.174;2023-04-30T01:17:46;3.97;;;1.57;;
16304;SDS011;8261;47.678;-122.174;2023-04-30T01:20:24;4.83;;;1.90;;
16304;SDS011;8261;47.678;-122.174;2023-04-30T01:22:59;4.33;;;1.60;;
16304;SDS011;8261;47.678;-122.174;2023-04-30T01:25:52;4.07;;;1.90;;
16304;SDS011;8261;47.678;-122.174;2023-04-30T01:28:37;3.57;;;1.60;;
16304;SDS011;8261;47.678;-122.174;2023-04-30T01:31:12;4.37;;;1.50;;
16304;SDS011;8261;47.678;-122.174;2023-04-30T01:33:44;3.70;;;1.60;;
16304;SDS011;8261;47.678;-122.174;2023-04-30T01:36:22;5.23;;;1.63;;
16304;SDS011;8261;47.678;-122.174;2023-04-30T01:39:10;5.17;;;1.60;;
16304;SDS011;8261;47.678;-122.174;2023-04-30T01:41:55;3.83;;;1.67;;
16304;SDS011;8261;47.678;-122.174;2023-04-30T01:44:47;5.40;;;1.77;;
16304;SDS011;8261;47.678;-122.174;2023-04-30T01:47:29;5.57;;;1.33;;
16304;SDS011;8261;47.678;-122.174;2023-04-30T01:50:11;2.80;;;1.40;;
16304;SDS011;8261;47.678;-122.174;2023-04-30T01:52:50;3.80;;;1.40;;
16304;SDS011;8261;47.678;-122.174;2023-04-30T01:55:26;7.37;;;1.77;;
16304;SDS011;8261;47.678;-122.174;2023-04-30T01:57:59;4.80;;;1.60;;
16304;SDS011;8261;47.678;-122.174;2023-04-30T02:00:34;3.60;;;1.47;;
16304;SDS011;8261;47.678;-122.174;2023-04-30T02:03:05;5.03;;;1.90;;
16304;SDS011;8261;47.678;-122.174;2023-04-30T02:05:37;3.67;;;1.67;;
16304;SDS011;8261;47.678;-122.174;2023-04-30T02:08:08;3.07;;;1.90;;
16304;SDS011;8261;47.678;-122.174;2023-04-30T02:10:39;3.73;;;1.47;;
16304;SDS011;8261;47.678;-122.174;2023-04-30T02:13:10;3.30;;;1.30;;
16304;SDS011;8261;47.678;-122.174;2023-04-30T02:15:43;5.30;;;1.80;;
16304;SDS011;8261;47.678;-122.174;2023-04-30T02:18:14;3.77;;;1.53;;
16304;SDS011;8261;47.678;-122.174;2023-04-30T02:20:45;3.13;;;1.70;;
16304;SDS011;8261;47.678;-122.174;2023-04-30T02:23:17;3.43;;;1.60;;
16304;SDS011;8261;47.678;-122.174;2023-04-30T02:25:48;3.43;;;1.60;;
16304;SDS011;8261;47.678;-122.174;2023-04-30T02:28:19;4.93;;;1.60;;
16304;SDS011;8261;47.678;-122.174;2023-04-30T02:30:52;3.67;;;1.70;;
16304;SDS011;8261;47.678;-122.174;2023-04-30T02:33:24;7.33;;;1.80;;
16304;SDS011;8261;47.678;-122.174;2023-04-30T02:35:57;3.57;;;1.70;;
16304;SDS011;8261;47.678;-122.174;2023-04-30T02:38:28;2.93;;;1.67;;
16304;SDS011;8261;47.678;-122.174;2023-04-30T02:40:59;5.00;;;1.60;;
16304;SDS011;8261;47.678;-122.174;2023-04-30T02:43:30;3.57;;;1.80;;
16304;SDS011;8261;47.678;-122.174;2023-04-30T02:46:05;3.77;;;1.60;;
16304;SDS011;8261;47.678;-122.174;2023-04-30T02:48:36;6.10;;;2.03;;
16304;SDS011;8261;47.678;-122.174;2023-04-30T02:51:07;4.47;;;2.57;;
16304;SDS011;8261;47.678;-122.174;2023-04-30T02:53:38;3.40;;;1.90;;
16304;SDS011;8261;47.678;-122.174;2023-04-30T02:56:09;3.87;;;1.90;;
16304;SDS011;8261;47.678;-122.174;2023-04-30T02:58:41;3.67;;;1.93;;
16304;SDS011;8261;47.678;-122.174;2023-04-30T03:01:14;3.97;;;1.97;;
16304;SDS011;8261;47.678;-122.174;2023-04-30T03:03:45;4.03;;;2.10;;
16304;SDS011;8261;47.678;-122.174;2023-04-30T03:06:17;3.87;;;2.23;;
16304;SDS011;8261;47.678;-122.174;2023-04-30T03:08:48;7.00;;;2.40;;
16304;SDS011;8261;47.678;-122.174;2023-04-30T03:11:19;3.60;;;1.83;;
16304;SDS011;8261;47.678;-122.174;2023-04-30T03:13:51;5.17;;;1.80;;
16304;SDS011;8261;47.678;-122.174;2023-04-30T03:16:25;4.43;;;2.10;;
16304;SDS011;8261;47.678;-122.174;2023-04-30T03:18:58;4.80;;;2.00;;
16304;SDS011;8261;47.678;-122.174;2023-04-30T03:21:29;4.53;;;2.00;;
16304;SDS011;8261;47.678;-122.174;2023-04-30T03:24:00;4.70;;;2.20;;
16304;SDS011;8261;47.678;-122.174;2023-04-30T03:26:32;4.70;;;2.10;;
16304;SDS011;8261;47.678;-122.174;2023-04-30T03:29:02;4.60;;;2.17;;
16304;SDS011;8261;47.678;-122.174;2023-04-30T03:31:35;4.87;;;2.17;;
16304;SDS011;8261;47.678;-122.174;2023-04-30T03:34:07;5.33;;;2.27;;
16304;SDS011;8261;47.678;-122.174;2023-04-30T03:36:38;6.17;;;2.20;;
16304;SDS011;8261;47.678;-122.174;2023-04-30T03:39:10;6.53;;;2.30;;
16304;SDS011;8261;47.678;-122.174;2023-04-30T03:41:41;6.17;;;2.40;;
16304;SDS011;8261;47.678;-122.174;2023-04-30T03:44:12;6.07;;;2.30;;
16304;SDS011;8261;47.678;-122.174;2023-04-30T03:46:45;5.33;;;2.67;;
16304;SDS011;8261;47.678;-122.174;2023-04-30T03:49:16;4.23;;;2.40;;
16304;SDS011;8261;47.678;-122.174;2023-04-30T03:51:48;6.43;;;2.50;;
16304;SDS011;8261;47.678;-122.174;2023-04-30T03:54:18;6.37;;;2.40;;
16304;SDS011;8261;47.678;-122.174;2023-04-30T03:56:50;6.77;;;2.23;;
16304;SDS011;8261;47.678;-122.174;2023-04-30T03:59:22;4.33;;;2.10;;
16304;SDS011;8261;47.678;-122.174;2023-04-30T04:01:55;7.07;;;2.70;;
16304;SDS011;8261;47.678;-122.174;2023-04-30T04:04:28;5.60;;;2.93;;
16304;SDS011;8261;47.678;-122.174;2023-04-30T04:07:00;7.10;;;2.80;;
16304;SDS011;8261;47.678;-122.174;2023-04-30T04:09:31;6.97;;;2.97;;
16304;SDS011;8261;47.678;-122.174;2023-04-30T04:12:02;6.43;;;2.80;;
16304;SDS011;8261;47.678;-122.174;2023-04-30T04:14:33;4.07;;;2.43;;
16304;SDS011;8261;47.678;-122.174;2023-04-30T04:17:07;4.97;;;2.50;;
16304;SDS011;8261;47.678;-122.174;2023-04-30T04:19:38;5.40;;;2.67;;
16304;SDS011;8261;47.678;-122.174;2023-04-30T04:22:09;5.63;;;2.53;;
16304;SDS011;8261;47.678;-122.174;2023-04-30T04:24:41;4.70;;;2.50;;
16304;SDS011;8261;47.678;-122.174;2023-04-30T04:27:12;5.80;;;2.70;;
16304;SDS011;8261;47.678;-122.174;2023-04-30T04:29:44;4.47;;;2.20;;
16304;SDS011;8261;47.678;-122.174;2023-04-30T04:32:17;4.60;;;2.90;;
16304;SDS011;8261;47.678;-122.174;2023-04-30T04:34:49;8.90;;;2.40;;
16304;SDS011;8261;47.678;-122.174;2023-04-30T04:37:22;7.33;;;2.50;;
16304;SDS011;8261;47.678;-122.174;2023-04-30T04:39:53;8.60;;;2.57;;
16304;SDS011;8261;47.678;-122.174;2023-04-30T04:42:25;6.73;;;2.73;;
16304;SDS011;8261;47.678;-122.174;2023-04-30T04:44:56;7.43;;;2.63;;
16304;SDS011;8261;47.678;-122.174;2023-04-30T04:47:29;7.30;;;3.33;;
16304;SDS011;8261;47.678;-122.174;2023-04-30T04:50:01;7.87;;;2.63;;
16304;SDS011;8261;47.678;-122.174;2023-04-30T04:52:32;5.07;;;2.60;;
16304;SDS011;8261;47.678;-122.174;2023-04-30T04:55:04;4.27;;;2.67;;
16304;SDS011;8261;47.678;-122.174;2023-04-30T04:57:36;6.73;;;2.80;;
16304;SDS011;8261;47.678;-122.174;2023-04-30T05:00:09;6.77;;;2.70;;
16304;SDS011;8261;47.678;-122.174;2023-04-30T05:02:42;7.23;;;2.47;;
16304;SDS011;8261;47.678;-122.174;2023-04-30T05:05:13;5.23;;;2.60;;
16304;SDS011;8261;47.678;-122.174;2023-04-30T05:07:45;6.77;;;2.97;;
16304;SDS011;8261;47.678;-122.174;2023-04-30T05:10:18;4.70;;;2.47;;
16304;SDS011;8261;47.678;-122.174;2023-04-30T05:12:50;5.10;;;2.57;;
16304;SDS011;8261;47.678;-122.174;2023-04-30T05:15:22;8.30;;;2.97;;
16304;SDS011;8261;47.678;-122.174;2023-04-30T05:17:56;5.97;;;2.70;;
16304;SDS011;8261;47.678;-122.174;2023-04-30T05:20:27;7.77;;;3.27;;
16304;SDS011;8261;47.678;-122.174;2023-04-30T05:22:58;5.53;;;3.40;;
16304;SDS011;8261;47.678;-122.174;2023-04-30T05:25:29;8.03;;;3.40;;
16304;SDS011;8261;47.678;-122.174;2023-04-30T05:28:01;8.87;;;3.23;;
16304;SDS011;8261;47.678;-122.174;2023-04-30T05:30:33;5.37;;;3.10;;
16304;SDS011;8261;47.678;-122.174;2023-04-30T05:33:06;6.53;;;3.40;;
16304;SDS011;8261;47.678;-122.174;2023-04-30T05:35:38;6.47;;;3.70;;
16304;SDS011;8261;47.678;-122.174;2023-04-30T05:38:09;7.20;;;3.07;;
16304;SDS011;8261;47.678;-122.174;2023-04-30T05:40:41;9.07;;;3.30;;
16304;SDS011;8261;47.678;-122.174;2023-04-30T05:43:12;7.50;;;3.40;;
16304;SDS011;8261;47.678;-122.174;2023-04-30T05:45:43;7.80;;;3.60;;
16304;SDS011;8261;47.678;-122.174;2023-04-30T05:48:17;8.00;;;3.43;;
16304;SDS011;8261;47.678;-122.174;2023-04-30T05:50:48;7.67;;;3.43;;
16304;SDS011;8261;47.678;-122.174;2023-04-30T05:53:19;7.23;;;3.53;;
16304;SDS011;8261;47.678;-122.174;2023-04-30T05:55:51;6.17;;;3.40;;
16304;SDS011;8261;47.678;-122.174;2023-04-30T05:58:24;5.87;;;3.37;;
16304;SDS011;8261;47.678;-122.174;2023-04-30T06:00:55;7.87;;;3.30;;
16304;SDS011;8261;47.678;-122.174;2023-04-30T06:03:29;9.40;;;3.70;;
16304;SDS011;8261;47.678;-122.174;2023-04-30T06:06:00;7.47;;;3.03;;
16304;SDS011;8261;47.678;-122.174;2023-04-30T06:08:32;12.33;;;3.47;;
16304;SDS011;8261;47.678;-122.174;2023-04-30T06:11:04;8.87;;;3.20;;
16304;SDS011;8261;47.678;-122.174;2023-04-30T06:13:35;10.37;;;3.27;;
16304;SDS011;8261;47.678;-122.174;2023-04-30T06:16:07;8.70;;;2.87;;
16304;SDS011;8261;47.678;-122.174;2023-04-30T06:18:40;6.80;;;3.03;;
16304;SDS011;8261;47.678;-122.174;2023-04-30T06:21:11;9.23;;;3.20;;
16304;SDS011;8261;47.678;-122.174;2023-04-30T06:23:42;7.83;;;3.23;;
16304;SDS011;8261;47.678;-122.174;2023-04-30T06:26:14;7.97;;;3.00;;
16304;SDS011;8261;47.678;-122.174;2023-04-30T06:28:46;7.70;;;3.40;;
16304;SDS011;8261;47.678;-122.174;2023-04-30T06:31:17;6.50;;;3.10;;
16304;SDS011;8261;47.678;-122.174;2023-04-30T06:33:50;6.43;;;2.77;;
16304;SDS011;8261;47.678;-122.174;2023-04-30T06:36:21;5.63;;;3.07;;
16304;SDS011;8261;47.678;-122.174;2023-04-30T06:38:52;4.97;;;2.60;;
16304;SDS011;8261;47.678;-122.174;2023-04-30T06:41:23;6.37;;;3.10;;
16304;SDS011;8261;47.678;-122.174;2023-04-30T06:43:55;5.10;;;2.60;;
16304;SDS011;8261;47.678;-122.174;2023-04-30T06:46:26;8.00;;;2.50;;
16304;SDS011;8261;47.678;-122.174;2023-04-30T06:49:00;6.90;;;3.37;;
16304;SDS011;8261;47.678;-122.174;2023-04-30T06:51:31;4.67;;;2.57;;
16304;SDS011;8261;47.678;-122.174;2023-04-30T06:54:02;5.70;;;2.57;;
16304;SDS011;8261;47.678;-122.174;2023-04-30T06:56:34;4.60;;;2.50;;
16304;SDS011;8261;47.678;-122.174;2023-04-30T06:59:05;4.73;;;2.00;;
16304;SDS011;8261;47.678;-122.174;2023-04-30T07:01:36;6.53;;;2.00;;
16304;SDS011;8261;47.678;-122.174;2023-04-30T07:04:09;3.80;;;1.83;;
16304;SDS011;8261;47.678;-122.174;2023-04-30T07:06:40;4.60;;;2.00;;
16304;SDS011;8261;47.678;-122.174;2023-04-30T07:09:12;4.07;;;1.90;;
16304;SDS011;8261;47.678;-122.174;2023-04-30T07:11:43;5.00;;;1.70;;
16304;SDS011;8261;47.678;-122.174;2023-04-30T07:14:14;4.00;;;2.13;;
16304;SDS011;8261;47.678;-122.174;2023-04-30T07:16:45;4.07;;;2.03;;
16304;SDS011;8261;47.678;-122.174;2023-04-30T07:19:21;4.33;;;1.90;;
16304;SDS011;8261;47.678;-122.174;2023-04-30T07:21:53;4.50;;;2.00;;
16304;SDS011;8261;47.678;-122.174;2023-04-30T07:24:24;3.63;;;2.07;;
16304;SDS011;8261;47.678;-122.174;2023-04-30T07:26:56;3.40;;;1.70;;
16304;SDS011;8261;47.678;-122.174;2023-04-30T07:29:30;4.67;;;2.03;;
16304;SDS011;8261;47.678;-122.174;2023-04-30T07:32:01;4.27;;;1.90;;
16304;SDS011;8261;47.678;-122.174;2023-04-30T07:34:34;3.83;;;2.03;;
16304;SDS011;8261;47.678;-122.174;2023-04-30T07:37:06;6.03;;;2.10;;
16304;SDS011;8261;47.678;-122.174;2023-04-30T07:39:38;4.60;;;2.00;;
16304;SDS011;8261;47.678;-122.174;2023-04-30T07:42:09;3.97;;;2.07;;
16304;SDS011;8261;47.678;-122.174;2023-04-30T07:44:40;4.87;;;2.07;;
16304;SDS011;8261;47.678;-122.174;2023-04-30T07:47:12;5.17;;;2.20;;
16304;SDS011;8261;47.678;-122.174;2023-04-30T07:49:47;5.97;;;2.33;;
16304;SDS011;8261;47.678;-122.174;2023-04-30T07:52:19;6.17;;;2.23;;
16304;SDS011;8261;47.678;-122.174;2023-04-30T07:54:50;5.20;;;2.13;;
16304;SDS011;8261;47.678;-122.174;2023-04-30T07:57:22;4.40;;;2.30;;
16304;SDS011;8261;47.678;-122.174;2023-04-30T07:59:54;3.03;;;1.83;;
16304;SDS011;8261;47.678;-122.174;2023-04-30T08:02:26;5.20;;;1.87;;
16304;SDS011;8261;47.678;-122.174;2023-04-30T08:04:59;3.43;;;2.70;;
16304;SDS011;8261;47.678;-122.174;2023-04-30T08:07:30;4.97;;;2.20;;
16304;SDS011;8261;47.678;-122.174;2023-04-30T08:10:03;7.07;;;2.37;;
16304;SDS011;8261;47.678;-122.174;2023-04-30T08:15:06;5.30;;;1.97;;
16304;SDS011;8261;47.678;-122.174;2023-04-30T08:17:37;3.67;;;2.00;;
16304;SDS011;8261;47.678;-122.174;2023-04-30T08:20:11;6.60;;;2.17;;
16304;SDS011;8261;47.678;-122.174;2023-04-30T08:22:43;2.87;;;2.10;;
16304;SDS011;8261;47.678;-122.174;2023-04-30T08:25:14;4.87;;;2.10;;
16304;SDS011;8261;47.678;-122.174;2023-04-30T08:27:45;4.40;;;2.10;;
16304;SDS011;8261;47.678;-122.174;2023-04-30T08:30:17;5.90;;;2.13;;
16304;SDS011;8261;47.678;-122.174;2023-04-30T08:32:48;5.63;;;2.27;;
16304;SDS011;8261;47.678;-122.174;2023-04-30T08:35:24;4.00;;;2.10;;
16304;SDS011;8261;47.678;-122.174;2023-04-30T08:37:56;4.13;;;2.13;;
16304;SDS011;8261;47.678;-122.174;2023-04-30T08:40:27;3.23;;;2.20;;
16304;SDS011;8261;47.678;-122.174;2023-04-30T08:43:17;5.87;;;2.23;;
16304;SDS011;8261;47.678;-122.174;2023-04-30T08:45:49;5.47;;;2.00;;
16304;SDS011;8261;47.678;-122.174;2023-04-30T08:48:21;3.97;;;1.70;;
16304;SDS011;8261;47.678;-122.174;2023-04-30T08:50:56;4.33;;;2.13;;
16304;SDS011;8261;47.678;-122.174;2023-04-30T08:53:30;5.07;;;1.80;;
16304;SDS011;8261;47.678;-122.174;2023-04-30T08:56:05;3.40;;;1.90;;
16304;SDS011;8261;47.678;-122.174;2023-04-30T08:58:39;7.10;;;2.20;;
16304;SDS011;8261;47.678;-122.174;2023-04-30T09:01:10;5.40;;;1.90;;
16304;SDS011;8261;47.678;-122.174;2023-04-30T09:03:42;6.17;;;1.80;;
16304;SDS011;8261;47.678;-122.174;2023-04-30T09:06:19;3.97;;;1.73;;
16304;SDS011;8261;47.678;-122.174;2023-04-30T09:08:50;2.90;;;1.70;;
16304;SDS011;8261;47.678;-122.174;2023-04-30T09:11:24;6.50;;;2.00;;
16304;SDS011;8261;47.678;-122.174;2023-04-30T09:13:57;4.03;;;1.90;;
16304;SDS011;8261;47.678;-122.174;2023-04-30T09:16:43;2.97;;;1.50;;
16304;SDS011;8261;47.678;-122.174;2023-04-30T09:19:24;2.30;;;1.83;;
16304;SDS011;8261;47.678;-122.174;2023-04-30T09:22:11;4.40;;;1.80;;
16304;SDS011;8261;47.678;-122.174;2023-04-30T09:24:49;3.47;;;1.80;;
16304;SDS011;8261;47.678;-122.174;2023-04-30T09:27:20;4.40;;;1.93;;
16304;SDS011;8261;47.678;-122.174;2023-04-30T09:29:52;3.33;;;2.13;;
16304;SDS011;8261;47.678;-122.174;2023-04-30T09:32:26;6.27;;;1.70;;
16304;SDS011;8261;47.678;-122.174;2023-04-30T09:34:58;3.57;;;1.77;;
16304;SDS011;8261;47.678;-122.174;2023-04-30T09:37:38;6.13;;;2.07;;
16304;SDS011;8261;47.678;-122.174;2023-04-30T09:40:09;4.50;;;1.70;;
16304;SDS011;8261;47.678;-122.174;2023-04-30T09:42:56;5.53;;;2.00;;
16304;SDS011;8261;47.678;-122.174;2023-04-30T09:45:37;2.93;;;2.00;;
16304;SDS011;8261;47.678;-122.174;2023-04-30T09:48:09;4.47;;;2.27;;
16304;SDS011;8261;47.678;-122.174;2023-04-30T09:50:43;4.97;;;1.90;;
16304;SDS011;8261;47.678;-122.174;2023-04-30T09:53:16;5.83;;;2.00;;
16304;SDS011;8261;47.678;-122.174;2023-04-30T09:55:48;3.43;;;1.80;;
16304;SDS011;8261;47.678;-122.174;2023-04-30T09:58:21;5.13;;;1.77;;
16304;SDS011;8261;47.678;-122.174;2023-04-30T10:00:57;5.80;;;2.13;;
16304;SDS011;8261;47.678;-122.174;2023-04-30T10:03:29;4.27;;;1.83;;
16304;SDS011;8261;47.678;-122.174;2023-04-30T10:06:01;5.70;;;2.30;;
16304;SDS011;8261;47.678;-122.174;2023-04-30T10:08:37;5.27;;;2.50;;
16304;SDS011;8261;47.678;-122.174;2023-04-30T10:11:11;4.37;;;2.10;;
16304;SDS011;8261;47.678;-122.174;2023-04-30T10:13:47;7.77;;;2.43;;
16304;SDS011;8261;47.678;-122.174;2023-04-30T10:16:25;7.50;;;2.50;;
16304;SDS011;8261;47.678;-122.174;2023-04-30T10:19:05;3.77;;;2.10;;
16304;SDS011;8261;47.678;-122.174;2023-04-30T10:21:41;8.07;;;2.60;;
16304;SDS011;8261;47.678;-122.174;2023-04-30T10:24:18;8.43;;;2.73;;
16304;SDS011;8261;47.678;-122.174;2023-04-30T10:26:49;7.97;;;2.10;;
16304;SDS011;8261;47.678;-122.174;2023-04-30T10:29:21;5.47;;;2.60;;
16304;SDS011;8261;47.678;-122.174;2023-04-30T10:31:52;4.87;;;2.53;;
16304;SDS011;8261;47.678;-122.174;2023-04-30T10:34:30;6.60;;;2.37;;
16304;SDS011;8261;47.678;-122.174;2023-04-30T10:37:13;6.77;;;2.70;;
16304;SDS011;8261;47.678;-122.174;2023-04-30T10:39:52;6.40;;;2.50;;
16304;SDS011;8261;47.678;-122.174;2023-04-30T10:42:24;11.50;;;3.07;;
16304;SDS011;8261;47.678;-122.174;2023-04-30T10:44:55;9.80;;;3.00;;
16304;SDS011;8261;47.678;-122.174;2023-04-30T10:47:27;7.77;;;2.50;;
16304;SDS011;8261;47.678;-122.174;2023-04-30T10:50:02;10.43;;;2.90;;
16304;SDS011;8261;47.678;-122.174;2023-04-30T10:52:36;6.73;;;2.60;;
16304;SDS011;8261;47.678;-122.174;2023-04-30T10:55:09;7.50;;;2.30;;
16304;SDS011;8261;47.678;-122.174;2023-04-30T10:57:45;5.77;;;2.73;;
16304;SDS011;8261;47.678;-122.174;2023-04-30T11:00:19;5.70;;;2.93;;
16304;SDS011;8261;47.678;-122.174;2023-04-30T11:02:57;11.60;;;2.87;;
16304;SDS011;8261;47.678;-122.174;2023-04-30T11:05:34;7.03;;;2.50;;
16304;SDS011;8261;47.678;-122.174;2023-04-30T11:08:06;7.83;;;2.60;;
16304;SDS011;8261;47.678;-122.174;2023-04-30T11:10:55;4.37;;;2.43;;
16304;SDS011;8261;47.678;-122.174;2023-04-30T11:13:28;5.57;;;2.67;;
16304;SDS011;8261;47.678;-122.174;2023-04-30T11:16:09;5.47;;;2.37;;
16304;SDS011;8261;47.678;-122.174;2023-04-30T11:18:41;7.57;;;3.00;;
16304;SDS011;8261;47.678;-122.174;2023-04-30T11:21:13;4.93;;;2.40;;
16304;SDS011;8261;47.678;-122.174;2023-04-30T11:23:48;6.67;;;2.80;;
16304;SDS011;8261;47.678;-122.174;2023-04-30T11:26:21;5.87;;;2.13;;
16304;SDS011;8261;47.678;-122.174;2023-04-30T11:28:52;7.47;;;2.97;;
16304;SDS011;8261;47.678;-122.174;2023-04-30T11:31:31;7.57;;;2.63;;
16304;SDS011;8261;47.678;-122.174;2023-04-30T11:34:03;8.40;;;3.27;;
16304;SDS011;8261;47.678;-122.174;2023-04-30T11:36:35;9.97;;;2.97;;
16304;SDS011;8261;47.678;-122.174;2023-04-30T11:39:09;8.07;;;3.10;;
16304;SDS011;8261;47.678;-122.174;2023-04-30T11:41:44;5.63;;;2.70;;
16304;SDS011;8261;47.678;-122.174;2023-04-30T11:44:21;9.80;;;2.77;;
16304;SDS011;8261;47.678;-122.174;2023-04-30T11:46:54;6.17;;;2.63;;
16304;SDS011;8261;47.678;-122.174;2023-04-30T11:49:25;6.23;;;2.67;;
16304;SDS011;8261;47.678;-122.174;2023-04-30T11:51:58;8.00;;;2.90;;
16304;SDS011;8261;47.678;-122.174;2023-04-30T11:54:30;6.00;;;2.67;;
16304;SDS011;8261;47.678;-122.174;2023-04-30T11:57:04;7.17;;;3.03;;
16304;SDS011;8261;47.678;-122.174;2023-04-30T11:59:39;5.67;;;2.60;;
16304;SDS011;8261;47.678;-122.174;2023-04-30T12:02:13;9.00;;;2.83;;
16304;SDS011;8261;47.678;-122.174;2023-04-30T12:04:45;7.23;;;2.80;;
16304;SDS011;8261;47.678;-122.174;2023-04-30T12:07:17;6.37;;;3.13;;
16304;SDS011;8261;47.678;-122.174;2023-04-30T12:09:52;6.27;;;2.77;;
16304;SDS011;8261;47.678;-122.174;2023-04-30T12:12:31;8.20;;;2.70;;
16304;SDS011;8261;47.678;-122.174;2023-04-30T12:15:12;11.07;;;3.23;;
16304;SDS011;8261;47.678;-122.174;2023-04-30T12:17:45;6.23;;;2.63;;
16304;SDS011;8261;47.678;-122.174;2023-04-30T12:20:16;5.30;;;2.80;;
16304;SDS011;8261;47.678;-122.174;2023-04-30T12:22:48;7.70;;;3.23;;
16304;SDS011;8261;47.678;-122.174;2023-04-30T12:25:20;7.73;;;2.83;;
16304;SDS011;8261;47.678;-122.174;2023-04-30T12:27:53;9.53;;;3.13;;
16304;SDS011;8261;47.678;-122.174;2023-04-30T12:30:27;7.83;;;2.67;;
16304;SDS011;8261;47.678;-122.174;2023-04-30T12:32:59;7.53;;;3.13;;
16304;SDS011;8261;47.678;-122.174;2023-04-30T12:35:31;8.33;;;2.90;;
16304;SDS011;8261;47.678;-122.174;2023-04-30T12:38:03;10.03;;;3.10;;
16304;SDS011;8261;47.678;-122.174;2023-04-30T12:40:36;7.50;;;3.37;;
16304;SDS011;8261;47.678;-122.174;2023-04-30T12:43:13;9.43;;;3.40;;
16304;SDS011;8261;47.678;-122.174;2023-04-30T12:45:46;9.07;;;3.27;;
16304;SDS011;8261;47.678;-122.174;2023-04-30T12:48:20;11.37;;;3.40;;
16304;SDS011;8261;47.678;-122.174;2023-04-30T12:50:53;8.63;;;3.10;;
16304;SDS011;8261;47.678;-122.174;2023-04-30T12:53:27;10.07;;;3.50;;
16304;SDS011;8261;47.678;-122.174;2023-04-30T12:56:09;5.03;;;3.00;;
16304;SDS011;8261;47.678;-122.174;2023-04-30T12:58:45;6.90;;;3.57;;
16304;SDS011;8261;47.678;-122.174;2023-04-30T13:01:17;13.43;;;3.57;;
16304;SDS011;8261;47.678;-122.174;2023-04-30T13:03:51;11.90;;;3.40;;
16304;SDS011;8261;47.678;-122.174;2023-04-30T13:06:22;11.27;;;4.10;;
16304;SDS011;8261;47.678;-122.174;2023-04-30T13:08:54;8.93;;;3.50;;
16304;SDS011;8261;47.678;-122.174;2023-04-30T13:11:25;8.27;;;3.27;;
16304;SDS011;8261;47.678;-122.174;2023-04-30T13:13:59;8.73;;;3.33;;
16304;SDS011;8261;47.678;-122.174;2023-04-30T13:16:31;9.43;;;3.63;;
16304;SDS011;8261;47.678;-122.174;2023-04-30T13:19:05;9.23;;;3.57;;
16304;SDS011;8261;47.678;-122.174;2023-04-30T13:21:37;10.00;;;3.13;;
16304;SDS011;8261;47.678;-122.174;2023-04-30T13:24:09;6.93;;;2.87;;
16304;SDS011;8261;47.678;-122.174;2023-04-30T13:26:41;6.97;;;3.40;;
16304;SDS011;8261;47.678;-122.174;2023-04-30T13:29:14;7.67;;;3.23;;
16304;SDS011;8261;47.678;-122.174;2023-04-30T13:31:47;6.50;;;2.97;;
16304;SDS011;8261;47.678;-122.174;2023-04-30T13:34:18;7.23;;;2.83;;
16304;SDS011;8261;47.678;-122.174;2023-04-30T13:36:50;6.73;;;2.60;;
16304;SDS011;8261;47.678;-122.174;2023-04-30T13:39:21;6.67;;;2.73;;
16304;SDS011;8261;47.678;-122.174;2023-04-30T13:41:53;8.43;;;3.17;;
16304;SDS011;8261;47.678;-122.174;2023-04-30T13:44:27;7.30;;;2.73;;
16304;SDS011;8261;47.678;-122.174;2023-04-30T13:46:59;6.23;;;2.80;;
16304;SDS011;8261;47.678;-122.174;2023-04-30T13:49:31;5.17;;;2.60;;
16304;SDS011;8261;47.678;-122.174;2023-04-30T13:52:03;4.80;;;2.37;;
16304;SDS011;8261;47.678;-122.174;2023-04-30T13:54:34;9.77;;;2.70;;
16304;SDS011;8261;47.678;-122.174;2023-04-30T13:57:06;6.73;;;2.90;;
16304;SDS011;8261;47.678;-122.174;2023-04-30T13:59:39;6.03;;;2.53;;
16304;SDS011;8261;47.678;-122.174;2023-04-30T14:02:11;6.47;;;2.63;;
16304;SDS011;8261;47.678;-122.174;2023-04-30T14:04:42;5.50;;;2.40;;
16304;SDS011;8261;47.678;-122.174;2023-04-30T14:07:31;8.37;;;2.50;;
16304;SDS011;8261;47.678;-122.174;2023-04-30T14:10:04;5.57;;;2.43;;
16304;SDS011;8261;47.678;-122.174;2023-04-30T14:12:37;4.70;;;2.30;;
16304;SDS011;8261;47.678;-122.174;2023-04-30T14:15:10;4.73;;;2.40;;
16304;SDS011;8261;47.678;-122.174;2023-04-30T14:17:42;4.43;;;2.10;;
16304;SDS011;8261;47.678;-122.174;2023-04-30T14:20:13;4.10;;;2.10;;
16304;SDS011;8261;47.678;-122.174;2023-04-30T14:22:46;6.53;;;2.23;;
16304;SDS011;8261;47.678;-122.174;2023-04-30T14:25:17;7.70;;;2.20;;
16304;SDS011;8261;47.678;-122.174;2023-04-30T14:27:48;3.43;;;1.77;;
16304;SDS011;8261;47.678;-122.174;2023-04-30T14:30:21;3.77;;;1.90;;
16304;SDS011;8261;47.678;-122.174;2023-04-30T14:32:52;3.27;;;1.77;;
16304;SDS011;8261;47.678;-122.174;2023-04-30T14:35:23;4.07;;;1.83;;
16304;SDS011;8261;47.678;-122.174;2023-04-30T14:37:56;3.03;;;1.57;;
16304;SDS011;8261;47.678;-122.174;2023-04-30T14:40:27;3.53;;;1.60;;
16304;SDS011;8261;47.678;-122.174;2023-04-30T14:42:58;5.73;;;1.83;;
16304;SDS011;8261;47.678;-122.174;2023-04-30T14:45:33;5.10;;;1.73;;
16304;SDS011;8261;47.678;-122.174;2023-04-30T14:48:05;5.27;;;1.83;;
16304;SDS011;8261;47.678;-122.174;2023-04-30T14:50:36;5.53;;;2.33;;
16304;SDS011;8261;47.678;-122.174;2023-04-30T14:53:07;6.83;;;1.90;;
16304;SDS011;8261;47.678;-122.174;2023-04-30T14:55:40;3.50;;;1.87;;
16304;SDS011;8261;47.678;-122.174;2023-04-30T14:58:12;5.10;;;1.77;;